sensor_id;sensor_type;location;lat;lon;timestamp;P1;durP1;ratioP1;P2;durP2;ratioP2
47894;SDS011;33653;52.302;8.134;2023-05-21T00:01:57;3.35;;;2.72;;
47894;SDS011;33653;52.302;8.134;2023-05-21T00:04:26;4.20;;;3.10;;
47894;SDS011;33653;52.302;8.134;2023-05-21T00:06:56;5.43;;;3.00;;
47894;SDS011;33653;52.302;8.134;2023-05-21T00:09:24;4.18;;;3.05;;
47894;SDS011;33653;52.302;8.134;2023-05-21T00:11:53;5.90;;;3.35;;
47894;SDS011;33653;52.302;8.134;2023-05-21T00:14:21;4.47;;;2.95;;
47894;SDS011;33653;52.302;8.134;2023-05-21T00:16:49;4.45;;;3.13;;
47894;SDS011;33653;52.302;8.134;2023-05-21T00:19:18;5.20;;;3.00;;
47894;SDS011;33653;52.302;8.134;2023-05-21T00:21:46;3.90;;;3.47;;
47894;SDS011;33653;52.302;8.134;2023-05-21T00:24:15;4.55;;;3.15;;
47894;SDS011;33653;52.302;8.134;2023-05-21T00:26:43;5.90;;;3.55;;
47894;SDS011;33653;52.302;8.134;2023-05-21T00:29:12;5.55;;;3.58;;
47894;SDS011;33653;52.302;8.134;2023-05-21T00:31:40;4.50;;;3.33;;
47894;SDS011;33653;52.302;8.134;2023-05-21T00:34:09;3.80;;;3.17;;
47894;SDS011;33653;52.302;8.134;2023-05-21T00:36:37;7.88;;;3.17;;
47894;SDS011;33653;52.302;8.134;2023-05-21T00:39:06;4.78;;;2.92;;
47894;SDS011;33653;52.302;8.134;2023-05-21T00:41:34;5.32;;;3.15;;
47894;SDS011;33653;52.302;8.134;2023-05-21T00:44:06;4.70;;;3.05;;
47894;SDS011;33653;52.302;8.134;2023-05-21T00:46:34;5.40;;;3.80;;
47894;SDS011;33653;52.302;8.134;2023-05-21T00:49:03;8.48;;;3.05;;
47894;SDS011;33653;52.302;8.134;2023-05-21T00:51:32;3.67;;;2.95;;
47894;SDS011;33653;52.302;8.134;2023-05-21T00:54:01;4.20;;;2.88;;
47894;SDS011;33653;52.302;8.134;2023-05-21T00:56:29;4.65;;;3.42;;
47894;SDS011;33653;52.302;8.134;2023-05-21T00:58:58;4.05;;;3.38;;
47894;SDS011;33653;52.302;8.134;2023-05-21T01:01:26;4.40;;;3.47;;
47894;SDS011;33653;52.302;8.134;2023-05-21T01:03:59;3.50;;;3.10;;
47894;SDS011;33653;52.302;8.134;2023-05-21T01:06:30;4.55;;;3.03;;
47894;SDS011;33653;52.302;8.134;2023-05-21T01:09:02;4.22;;;3.50;;
47894;SDS011;33653;52.302;8.134;2023-05-21T01:11:36;4.13;;;3.30;;
47894;SDS011;33653;52.302;8.134;2023-05-21T01:14:15;5.20;;;2.95;;
47894;SDS011;33653;52.302;8.134;2023-05-21T01:16:45;4.80;;;3.42;;
47894;SDS011;33653;52.302;8.134;2023-05-21T01:19:16;4.47;;;3.30;;
47894;SDS011;33653;52.302;8.134;2023-05-21T01:21:56;4.32;;;3.30;;
47894;SDS011;33653;52.302;8.134;2023-05-21T01:24:32;4.93;;;3.33;;
47894;SDS011;33653;52.302;8.134;2023-05-21T01:27:01;4.50;;;3.63;;
47894;SDS011;33653;52.302;8.134;2023-05-21T01:29:32;5.65;;;3.45;;
47894;SDS011;33653;52.302;8.134;2023-05-21T01:35:01;9.10;;;3.67;;
47894;SDS011;33653;52.302;8.134;2023-05-21T01:37:38;5.72;;;3.72;;
47894;SDS011;33653;52.302;8.134;2023-05-21T01:40:21;4.63;;;3.42;;
47894;SDS011;33653;52.302;8.134;2023-05-21T01:43:21;7.85;;;3.47;;
47894;SDS011;33653;52.302;8.134;2023-05-21T01:45:52;7.00;;;3.38;;
47894;SDS011;33653;52.302;8.134;2023-05-21T01:48:22;5.32;;;3.47;;
47894;SDS011;33653;52.302;8.134;2023-05-21T01:50:55;4.57;;;3.60;;
47894;SDS011;33653;52.302;8.134;2023-05-21T01:53:30;5.38;;;3.38;;
47894;SDS011;33653;52.302;8.134;2023-05-21T01:55:58;9.65;;;3.75;;
47894;SDS011;33653;52.302;8.134;2023-05-21T01:58:26;7.07;;;3.35;;
47894;SDS011;33653;52.302;8.134;2023-05-21T02:00:55;4.55;;;3.78;;
47894;SDS011;33653;52.302;8.134;2023-05-21T02:03:24;6.80;;;3.67;;
47894;SDS011;33653;52.302;8.134;2023-05-21T02:05:57;5.13;;;3.60;;
47894;SDS011;33653;52.302;8.134;2023-05-21T02:08:25;4.80;;;3.67;;
47894;SDS011;33653;52.302;8.134;2023-05-21T02:10:54;5.13;;;3.42;;
47894;SDS011;33653;52.302;8.134;2023-05-21T02:13:24;13.38;;;3.72;;
47894;SDS011;33653;52.302;8.134;2023-05-21T02:15:53;4.70;;;3.25;;
47894;SDS011;33653;52.302;8.134;2023-05-21T02:18:22;9.93;;;4.30;;
47894;SDS011;33653;52.302;8.134;2023-05-21T02:20:52;5.05;;;3.50;;
47894;SDS011;33653;52.302;8.134;2023-05-21T02:23:20;4.60;;;3.60;;
47894;SDS011;33653;52.302;8.134;2023-05-21T02:25:53;4.88;;;3.63;;
47894;SDS011;33653;52.302;8.134;2023-05-21T02:28:21;8.68;;;4.18;;
47894;SDS011;33653;52.302;8.134;2023-05-21T02:30:50;7.45;;;4.40;;
47894;SDS011;33653;52.302;8.134;2023-05-21T02:33:19;5.05;;;4.05;;
47894;SDS011;33653;52.302;8.134;2023-05-21T02:35:47;5.53;;;4.05;;
47894;SDS011;33653;52.302;8.134;2023-05-21T02:38:16;5.90;;;3.72;;
47894;SDS011;33653;52.302;8.134;2023-05-21T02:40:45;5.25;;;3.47;;
47894;SDS011;33653;52.302;8.134;2023-05-21T02:43:14;5.55;;;3.95;;
47894;SDS011;33653;52.302;8.134;2023-05-21T02:45:43;7.45;;;4.03;;
47894;SDS011;33653;52.302;8.134;2023-05-21T02:48:12;5.78;;;3.85;;
47894;SDS011;33653;52.302;8.134;2023-05-21T02:50:42;4.45;;;3.42;;
47894;SDS011;33653;52.302;8.134;2023-05-21T02:53:11;5.13;;;3.75;;
47894;SDS011;33653;52.302;8.134;2023-05-21T02:55:39;5.70;;;3.75;;
47894;SDS011;33653;52.302;8.134;2023-05-21T02:58:08;5.45;;;3.75;;
47894;SDS011;33653;52.302;8.134;2023-05-21T03:03:08;5.18;;;3.83;;
47894;SDS011;33653;52.302;8.134;2023-05-21T03:05:36;4.80;;;3.63;;
47894;SDS011;33653;52.302;8.134;2023-05-21T03:08:04;5.25;;;3.45;;
47894;SDS011;33653;52.302;8.134;2023-05-21T03:10:33;4.40;;;3.47;;
47894;SDS011;33653;52.302;8.134;2023-05-21T03:13:01;7.38;;;4.28;;
47894;SDS011;33653;52.302;8.134;2023-05-21T03:15:33;4.78;;;3.70;;
47894;SDS011;33653;52.302;8.134;2023-05-21T03:18:02;6.00;;;4.53;;
47894;SDS011;33653;52.302;8.134;2023-05-21T03:20:30;6.00;;;4.22;;
47894;SDS011;33653;52.302;8.134;2023-05-21T03:23:01;6.47;;;4.15;;
47894;SDS011;33653;52.302;8.134;2023-05-21T03:25:30;5.28;;;4.13;;
47894;SDS011;33653;52.302;8.134;2023-05-21T03:27:59;6.32;;;4.22;;
47894;SDS011;33653;52.302;8.134;2023-05-21T03:30:50;7.68;;;4.38;;
47894;SDS011;33653;52.302;8.134;2023-05-21T03:33:34;5.90;;;3.90;;
47894;SDS011;33653;52.302;8.134;2023-05-21T03:36:14;6.63;;;4.03;;
47894;SDS011;33653;52.302;8.134;2023-05-21T03:38:43;7.22;;;3.92;;
47894;SDS011;33653;52.302;8.134;2023-05-21T03:41:11;6.72;;;4.38;;
47894;SDS011;33653;52.302;8.134;2023-05-21T03:43:42;4.85;;;3.67;;
47894;SDS011;33653;52.302;8.134;2023-05-21T03:46:11;7.28;;;4.60;;
47894;SDS011;33653;52.302;8.134;2023-05-21T03:49:03;5.63;;;4.15;;
47894;SDS011;33653;52.302;8.134;2023-05-21T03:51:34;5.03;;;3.65;;
47894;SDS011;33653;52.302;8.134;2023-05-21T03:54:04;5.47;;;3.72;;
47894;SDS011;33653;52.302;8.134;2023-05-21T03:56:34;8.15;;;4.50;;
47894;SDS011;33653;52.302;8.134;2023-05-21T03:59:03;4.88;;;3.72;;
47894;SDS011;33653;52.302;8.134;2023-05-21T04:01:32;7.90;;;4.53;;
47894;SDS011;33653;52.302;8.134;2023-05-21T04:04:01;5.82;;;3.80;;
47894;SDS011;33653;52.302;8.134;2023-05-21T04:06:30;7.38;;;3.97;;
47894;SDS011;33653;52.302;8.134;2023-05-21T04:08:58;7.90;;;4.10;;
47894;SDS011;33653;52.302;8.134;2023-05-21T04:11:27;6.40;;;4.03;;
47894;SDS011;33653;52.302;8.134;2023-05-21T04:13:55;5.45;;;3.78;;
47894;SDS011;33653;52.302;8.134;2023-05-21T04:16:23;6.07;;;3.78;;
47894;SDS011;33653;52.302;8.134;2023-05-21T04:18:52;5.57;;;3.78;;
47894;SDS011;33653;52.302;8.134;2023-05-21T04:21:26;8.05;;;4.32;;
47894;SDS011;33653;52.302;8.134;2023-05-21T04:23:54;6.55;;;4.13;;
47894;SDS011;33653;52.302;8.134;2023-05-21T04:26:46;4.95;;;3.83;;
47894;SDS011;33653;52.302;8.134;2023-05-21T04:29:15;6.68;;;3.83;;
47894;SDS011;33653;52.302;8.134;2023-05-21T04:31:48;6.35;;;4.28;;
47894;SDS011;33653;52.302;8.134;2023-05-21T04:34:17;5.70;;;4.22;;
47894;SDS011;33653;52.302;8.134;2023-05-21T04:36:46;5.47;;;4.28;;
47894;SDS011;33653;52.302;8.134;2023-05-21T04:39:14;5.10;;;4.47;;
47894;SDS011;33653;52.302;8.134;2023-05-21T04:41:43;7.18;;;4.53;;
47894;SDS011;33653;52.302;8.134;2023-05-21T04:44:11;6.28;;;3.38;;
47894;SDS011;33653;52.302;8.134;2023-05-21T04:46:45;6.90;;;4.07;;
47894;SDS011;33653;52.302;8.134;2023-05-21T04:49:16;8.10;;;4.57;;
47894;SDS011;33653;52.302;8.134;2023-05-21T04:51:47;7.43;;;3.65;;
47894;SDS011;33653;52.302;8.134;2023-05-21T04:54:18;8.25;;;3.75;;
47894;SDS011;33653;52.302;8.134;2023-05-21T04:56:47;4.75;;;4.05;;
47894;SDS011;33653;52.302;8.134;2023-05-21T04:59:16;5.13;;;3.38;;
47894;SDS011;33653;52.302;8.134;2023-05-21T05:01:45;10.98;;;3.78;;
47894;SDS011;33653;52.302;8.134;2023-05-21T05:04:14;6.55;;;3.85;;
47894;SDS011;33653;52.302;8.134;2023-05-21T05:06:42;4.47;;;3.65;;
47894;SDS011;33653;52.302;8.134;2023-05-21T05:09:10;5.45;;;3.95;;
47894;SDS011;33653;52.302;8.134;2023-05-21T05:11:39;4.63;;;3.67;;
47894;SDS011;33653;52.302;8.134;2023-05-21T05:14:08;4.60;;;3.88;;
47894;SDS011;33653;52.302;8.134;2023-05-21T05:16:36;5.47;;;3.30;;
47894;SDS011;33653;52.302;8.134;2023-05-21T05:19:04;5.00;;;3.75;;
47894;SDS011;33653;52.302;8.134;2023-05-21T05:21:33;5.68;;;4.32;;
47894;SDS011;33653;52.302;8.134;2023-05-21T05:24:01;5.60;;;3.95;;
47894;SDS011;33653;52.302;8.134;2023-05-21T05:26:31;9.40;;;4.13;;
47894;SDS011;33653;52.302;8.134;2023-05-21T05:28:59;5.20;;;3.30;;
47894;SDS011;33653;52.302;8.134;2023-05-21T05:31:28;5.65;;;4.07;;
47894;SDS011;33653;52.302;8.134;2023-05-21T05:33:56;6.70;;;3.85;;
47894;SDS011;33653;52.302;8.134;2023-05-21T05:38:57;10.25;;;4.22;;
47894;SDS011;33653;52.302;8.134;2023-05-21T05:41:26;7.15;;;4.32;;
47894;SDS011;33653;52.302;8.134;2023-05-21T05:46:49;7.78;;;3.53;;
47894;SDS011;33653;52.302;8.134;2023-05-21T05:49:17;5.25;;;3.88;;
47894;SDS011;33653;52.302;8.134;2023-05-21T05:51:45;5.18;;;3.50;;
47894;SDS011;33653;52.302;8.134;2023-05-21T05:54:13;4.60;;;3.60;;
47894;SDS011;33653;52.302;8.134;2023-05-21T05:56:45;6.82;;;3.90;;
47894;SDS011;33653;52.302;8.134;2023-05-21T05:59:16;5.43;;;3.60;;
47894;SDS011;33653;52.302;8.134;2023-05-21T06:01:48;5.88;;;3.85;;
47894;SDS011;33653;52.302;8.134;2023-05-21T06:04:17;5.47;;;3.72;;
47894;SDS011;33653;52.302;8.134;2023-05-21T06:06:46;6.50;;;3.83;;
47894;SDS011;33653;52.302;8.134;2023-05-21T06:09:14;4.20;;;3.38;;
47894;SDS011;33653;52.302;8.134;2023-05-21T06:11:43;10.27;;;4.00;;
47894;SDS011;33653;52.302;8.134;2023-05-21T06:14:11;8.93;;;4.10;;
47894;SDS011;33653;52.302;8.134;2023-05-21T06:16:40;6.30;;;4.28;;
47894;SDS011;33653;52.302;8.134;2023-05-21T06:19:08;4.97;;;3.67;;
47894;SDS011;33653;52.302;8.134;2023-05-21T06:21:37;5.53;;;3.88;;
47894;SDS011;33653;52.302;8.134;2023-05-21T06:24:07;6.93;;;3.60;;
47894;SDS011;33653;52.302;8.134;2023-05-21T06:26:36;6.85;;;4.05;;
47894;SDS011;33653;52.302;8.134;2023-05-21T06:29:04;7.93;;;4.60;;
47894;SDS011;33653;52.302;8.134;2023-05-21T06:31:34;7.18;;;3.92;;
47894;SDS011;33653;52.302;8.134;2023-05-21T06:34:02;4.75;;;3.78;;
47894;SDS011;33653;52.302;8.134;2023-05-21T06:36:32;7.40;;;3.85;;
47894;SDS011;33653;52.302;8.134;2023-05-21T06:39:01;5.78;;;3.58;;
47894;SDS011;33653;52.302;8.134;2023-05-21T06:41:30;5.05;;;3.75;;
47894;SDS011;33653;52.302;8.134;2023-05-21T06:44:04;6.30;;;4.07;;
47894;SDS011;33653;52.302;8.134;2023-05-21T06:46:50;6.30;;;4.28;;
47894;SDS011;33653;52.302;8.134;2023-05-21T06:49:19;5.60;;;4.25;;
47894;SDS011;33653;52.302;8.134;2023-05-21T06:51:47;5.90;;;4.13;;
47894;SDS011;33653;52.302;8.134;2023-05-21T06:54:16;8.88;;;4.05;;
47894;SDS011;33653;52.302;8.134;2023-05-21T06:56:44;4.55;;;3.63;;
47894;SDS011;33653;52.302;8.134;2023-05-21T06:59:14;7.97;;;4.43;;
47894;SDS011;33653;52.302;8.134;2023-05-21T07:01:42;6.07;;;3.85;;
47894;SDS011;33653;52.302;8.134;2023-05-21T07:04:12;6.10;;;3.85;;
47894;SDS011;33653;52.302;8.134;2023-05-21T07:06:42;5.77;;;3.77;;
47894;SDS011;33653;52.302;8.134;2023-05-21T07:09:11;5.97;;;4.13;;
47894;SDS011;33653;52.302;8.134;2023-05-21T07:11:39;6.45;;;4.03;;
47894;SDS011;33653;52.302;8.134;2023-05-21T07:14:08;5.53;;;3.75;;
47894;SDS011;33653;52.302;8.134;2023-05-21T07:16:37;6.45;;;4.18;;
47894;SDS011;33653;52.302;8.134;2023-05-21T07:19:07;5.80;;;4.32;;
47894;SDS011;33653;52.302;8.134;2023-05-21T07:21:35;8.38;;;4.32;;
47894;SDS011;33653;52.302;8.134;2023-05-21T07:24:06;5.30;;;4.07;;
47894;SDS011;33653;52.302;8.134;2023-05-21T07:26:37;5.95;;;4.80;;
47894;SDS011;33653;52.302;8.134;2023-05-21T07:29:07;7.00;;;4.45;;
47894;SDS011;33653;52.302;8.134;2023-05-21T07:31:36;7.78;;;4.15;;
47894;SDS011;33653;52.302;8.134;2023-05-21T07:34:06;6.97;;;4.70;;
47894;SDS011;33653;52.302;8.134;2023-05-21T07:36:35;5.40;;;4.28;;
47894;SDS011;33653;52.302;8.134;2023-05-21T07:39:03;5.70;;;4.05;;
47894;SDS011;33653;52.302;8.134;2023-05-21T07:41:32;6.85;;;4.78;;
47894;SDS011;33653;52.302;8.134;2023-05-21T07:44:07;6.75;;;4.70;;
47894;SDS011;33653;52.302;8.134;2023-05-21T07:46:39;7.10;;;4.68;;
47894;SDS011;33653;52.302;8.134;2023-05-21T07:49:09;10.18;;;4.75;;
47894;SDS011;33653;52.302;8.134;2023-05-21T07:51:44;7.35;;;4.70;;
47894;SDS011;33653;52.302;8.134;2023-05-21T07:54:12;7.18;;;4.35;;
47894;SDS011;33653;52.302;8.134;2023-05-21T07:56:41;7.32;;;4.53;;
47894;SDS011;33653;52.302;8.134;2023-05-21T07:59:26;7.68;;;4.57;;
47894;SDS011;33653;52.302;8.134;2023-05-21T08:01:54;5.35;;;4.38;;
47894;SDS011;33653;52.302;8.134;2023-05-21T08:04:23;7.05;;;4.53;;
47894;SDS011;33653;52.302;8.134;2023-05-21T08:06:52;6.60;;;5.00;;
47894;SDS011;33653;52.302;8.134;2023-05-21T08:09:20;7.57;;;5.18;;
47894;SDS011;33653;52.302;8.134;2023-05-21T08:11:50;10.03;;;5.50;;
47894;SDS011;33653;52.302;8.134;2023-05-21T08:14:19;6.82;;;5.05;;
47894;SDS011;33653;52.302;8.134;2023-05-21T08:16:47;7.53;;;5.28;;
47894;SDS011;33653;52.302;8.134;2023-05-21T08:19:16;9.75;;;5.18;;
47894;SDS011;33653;52.302;8.134;2023-05-21T08:21:44;8.52;;;5.03;;
47894;SDS011;33653;52.302;8.134;2023-05-21T08:24:14;9.48;;;5.78;;
47894;SDS011;33653;52.302;8.134;2023-05-21T08:26:49;6.18;;;4.57;;
47894;SDS011;33653;52.302;8.134;2023-05-21T08:29:18;8.32;;;4.70;;
47894;SDS011;33653;52.302;8.134;2023-05-21T08:31:46;11.27;;;5.43;;
47894;SDS011;33653;52.302;8.134;2023-05-21T08:34:15;9.13;;;5.45;;
47894;SDS011;33653;52.302;8.134;2023-05-21T08:36:58;12.60;;;6.57;;
47894;SDS011;33653;52.302;8.134;2023-05-21T08:39:58;7.65;;;5.25;;
47894;SDS011;33653;52.302;8.134;2023-05-21T08:42:43;8.82;;;6.45;;
47894;SDS011;33653;52.302;8.134;2023-05-21T08:45:35;8.00;;;5.38;;
47894;SDS011;33653;52.302;8.134;2023-05-21T08:48:22;7.57;;;4.90;;
47894;SDS011;33653;52.302;8.134;2023-05-21T08:51:05;8.35;;;5.38;;
47894;SDS011;33653;52.302;8.134;2023-05-21T08:53:37;8.80;;;6.15;;
47894;SDS011;33653;52.302;8.134;2023-05-21T08:56:22;11.95;;;5.80;;
47894;SDS011;33653;52.302;8.134;2023-05-21T08:58:55;9.82;;;5.60;;
47894;SDS011;33653;52.302;8.134;2023-05-21T09:01:27;14.00;;;6.10;;
47894;SDS011;33653;52.302;8.134;2023-05-21T09:04:04;10.52;;;6.78;;
47894;SDS011;33653;52.302;8.134;2023-05-21T09:06:31;9.32;;;6.68;;
47894;SDS011;33653;52.302;8.134;2023-05-21T09:09:01;9.95;;;6.63;;
47894;SDS011;33653;52.302;8.134;2023-05-21T09:11:51;10.85;;;6.82;;
47894;SDS011;33653;52.302;8.134;2023-05-21T09:14:34;8.77;;;5.65;;
47894;SDS011;33653;52.302;8.134;2023-05-21T09:17:12;8.48;;;6.35;;
47894;SDS011;33653;52.302;8.134;2023-05-21T09:22:43;9.80;;;6.20;;
47894;SDS011;33653;52.302;8.134;2023-05-21T09:25:23;10.98;;;7.13;;
47894;SDS011;33653;52.302;8.134;2023-05-21T09:27:59;8.93;;;6.25;;
47894;SDS011;33653;52.302;8.134;2023-05-21T09:30:27;7.88;;;6.18;;
47894;SDS011;33653;52.302;8.134;2023-05-21T09:32:59;13.55;;;6.45;;
47894;SDS011;33653;52.302;8.134;2023-05-21T09:35:28;13.15;;;7.47;;
47894;SDS011;33653;52.302;8.134;2023-05-21T09:37:56;28.83;;;16.67;;
47894;SDS011;33653;52.302;8.134;2023-05-21T09:40:24;10.52;;;6.97;;
47894;SDS011;33653;52.302;8.134;2023-05-21T09:42:54;13.18;;;8.15;;
47894;SDS011;33653;52.302;8.134;2023-05-21T09:45:23;15.65;;;8.52;;
47894;SDS011;33653;52.302;8.134;2023-05-21T09:47:56;23.35;;;15.43;;
47894;SDS011;33653;52.302;8.134;2023-05-21T09:50:25;18.77;;;11.02;;
47894;SDS011;33653;52.302;8.134;2023-05-21T09:52:54;18.75;;;11.48;;
47894;SDS011;33653;52.302;8.134;2023-05-21T09:55:25;9.32;;;7.13;;
47894;SDS011;33653;52.302;8.134;2023-05-21T09:57:54;45.03;;;28.55;;
47894;SDS011;33653;52.302;8.134;2023-05-21T10:00:26;40.03;;;26.38;;
47894;SDS011;33653;52.302;8.134;2023-05-21T10:02:56;32.78;;;18.42;;
47894;SDS011;33653;52.302;8.134;2023-05-21T10:05:28;10.50;;;7.45;;
47894;SDS011;33653;52.302;8.134;2023-05-21T10:08:00;23.00;;;13.95;;
47894;SDS011;33653;52.302;8.134;2023-05-21T10:10:32;10.82;;;7.03;;
47894;SDS011;33653;52.302;8.134;2023-05-21T10:13:07;10.40;;;7.63;;
47894;SDS011;33653;52.302;8.134;2023-05-21T10:15:37;12.98;;;7.63;;
47894;SDS011;33653;52.302;8.134;2023-05-21T10:18:09;13.15;;;8.52;;
47894;SDS011;33653;52.302;8.134;2023-05-21T10:20:38;10.77;;;7.65;;
47894;SDS011;33653;52.302;8.134;2023-05-21T10:23:08;11.63;;;7.32;;
47894;SDS011;33653;52.302;8.134;2023-05-21T10:25:39;11.75;;;7.03;;
47894;SDS011;33653;52.302;8.134;2023-05-21T10:28:08;10.27;;;7.78;;
47894;SDS011;33653;52.302;8.134;2023-05-21T10:30:36;11.65;;;7.13;;
47894;SDS011;33653;52.302;8.134;2023-05-21T10:33:05;11.20;;;7.57;;
47894;SDS011;33653;52.302;8.134;2023-05-21T10:35:34;9.77;;;7.13;;
47894;SDS011;33653;52.302;8.134;2023-05-21T10:38:06;14.10;;;8.43;;
47894;SDS011;33653;52.302;8.134;2023-05-21T10:40:36;13.32;;;8.38;;
47894;SDS011;33653;52.302;8.134;2023-05-21T10:43:20;12.70;;;8.53;;
47894;SDS011;33653;52.302;8.134;2023-05-21T10:55:20;11.32;;;7.97;;
47894;SDS011;33653;52.302;8.134;2023-05-21T11:01:05;11.35;;;7.25;;
47894;SDS011;33653;52.302;8.134;2023-05-21T11:03:34;11.45;;;7.13;;
47894;SDS011;33653;52.302;8.134;2023-05-21T11:06:04;10.73;;;7.65;;
47894;SDS011;33653;52.302;8.134;2023-05-21T11:08:32;9.80;;;7.35;;
47894;SDS011;33653;52.302;8.134;2023-05-21T11:11:02;10.77;;;7.50;;
47894;SDS011;33653;52.302;8.134;2023-05-21T11:13:44;13.02;;;7.75;;
47894;SDS011;33653;52.302;8.134;2023-05-21T11:16:17;11.27;;;7.82;;
47894;SDS011;33653;52.302;8.134;2023-05-21T11:21:17;10.52;;;7.55;;
47894;SDS011;33653;52.302;8.134;2023-05-21T11:26:29;11.80;;;7.95;;
47894;SDS011;33653;52.302;8.134;2023-05-21T11:29:18;9.35;;;7.15;;
47894;SDS011;33653;52.302;8.134;2023-05-21T11:31:47;11.60;;;7.25;;
47894;SDS011;33653;52.302;8.134;2023-05-21T11:34:37;14.55;;;8.55;;
47894;SDS011;33653;52.302;8.134;2023-05-21T11:39:45;10.50;;;7.47;;
47894;SDS011;33653;52.302;8.134;2023-05-21T11:45:03;10.00;;;7.28;;
47894;SDS011;33653;52.302;8.134;2023-05-21T11:47:32;10.30;;;7.25;;
47894;SDS011;33653;52.302;8.134;2023-05-21T11:50:01;10.43;;;7.68;;
47894;SDS011;33653;52.302;8.134;2023-05-21T11:52:30;10.85;;;7.60;;
47894;SDS011;33653;52.302;8.134;2023-05-21T11:54:59;11.85;;;8.13;;
47894;SDS011;33653;52.302;8.134;2023-05-21T11:57:28;9.82;;;7.28;;
47894;SDS011;33653;52.302;8.134;2023-05-21T11:59:59;10.35;;;7.90;;
47894;SDS011;33653;52.302;8.134;2023-05-21T12:02:43;13.27;;;7.00;;
47894;SDS011;33653;52.302;8.134;2023-05-21T12:05:15;14.77;;;8.32;;
47894;SDS011;33653;52.302;8.134;2023-05-21T12:07:46;11.32;;;7.80;;
47894;SDS011;33653;52.302;8.134;2023-05-21T12:10:19;11.00;;;7.55;;
47894;SDS011;33653;52.302;8.134;2023-05-21T12:12:48;9.95;;;7.35;;
47894;SDS011;33653;52.302;8.134;2023-05-21T12:15:23;10.02;;;6.97;;
47894;SDS011;33653;52.302;8.134;2023-05-21T12:20:21;7.70;;;6.50;;
47894;SDS011;33653;52.302;8.134;2023-05-21T12:22:49;10.38;;;7.07;;
47894;SDS011;33653;52.302;8.134;2023-05-21T12:25:18;9.52;;;7.03;;
47894;SDS011;33653;52.302;8.134;2023-05-21T12:27:47;9.32;;;6.75;;
47894;SDS011;33653;52.302;8.134;2023-05-21T12:30:18;9.35;;;6.78;;
47894;SDS011;33653;52.302;8.134;2023-05-21T12:32:47;12.50;;;7.00;;
47894;SDS011;33653;52.302;8.134;2023-05-21T12:35:19;11.80;;;6.90;;
47894;SDS011;33653;52.302;8.134;2023-05-21T12:37:51;10.20;;;6.63;;
47894;SDS011;33653;52.302;8.134;2023-05-21T12:40:19;15.20;;;6.65;;
47894;SDS011;33653;52.302;8.134;2023-05-21T12:42:48;11.75;;;7.38;;
47894;SDS011;33653;52.302;8.134;2023-05-21T12:45:17;9.63;;;6.90;;
47894;SDS011;33653;52.302;8.134;2023-05-21T12:47:49;12.88;;;7.25;;
47894;SDS011;33653;52.302;8.134;2023-05-21T12:50:22;9.70;;;6.70;;
47894;SDS011;33653;52.302;8.134;2023-05-21T12:52:52;12.48;;;7.03;;
47894;SDS011;33653;52.302;8.134;2023-05-21T12:55:23;10.23;;;6.50;;
47894;SDS011;33653;52.302;8.134;2023-05-21T12:58:03;33.15;;;12.25;;
47894;SDS011;33653;52.302;8.134;2023-05-21T13:00:35;9.52;;;6.70;;
47894;SDS011;33653;52.302;8.134;2023-05-21T13:03:04;7.63;;;5.55;;
47894;SDS011;33653;52.302;8.134;2023-05-21T13:05:33;9.82;;;6.53;;
47894;SDS011;33653;52.302;8.134;2023-05-21T13:08:02;8.70;;;6.20;;
47894;SDS011;33653;52.302;8.134;2023-05-21T13:10:30;9.65;;;6.35;;
47894;SDS011;33653;52.302;8.134;2023-05-21T13:13:00;8.90;;;6.78;;
47894;SDS011;33653;52.302;8.134;2023-05-21T13:15:28;8.13;;;6.28;;
47894;SDS011;33653;52.302;8.134;2023-05-21T13:17:56;11.18;;;6.63;;
47894;SDS011;33653;52.302;8.134;2023-05-21T13:20:27;9.02;;;6.20;;
47894;SDS011;33653;52.302;8.134;2023-05-21T13:22:55;9.35;;;6.30;;
47894;SDS011;33653;52.302;8.134;2023-05-21T13:25:24;10.43;;;6.57;;
47894;SDS011;33653;52.302;8.134;2023-05-21T13:27:56;11.30;;;6.15;;
47894;SDS011;33653;52.302;8.134;2023-05-21T13:30:28;7.28;;;6.05;;
47894;SDS011;33653;52.302;8.134;2023-05-21T13:32:56;12.60;;;7.38;;
47894;SDS011;33653;52.302;8.134;2023-05-21T13:35:25;11.02;;;6.55;;
47894;SDS011;33653;52.302;8.134;2023-05-21T13:37:53;11.73;;;7.07;;
47894;SDS011;33653;52.302;8.134;2023-05-21T13:40:23;14.10;;;7.13;;
47894;SDS011;33653;52.302;8.134;2023-05-21T13:42:52;11.25;;;6.70;;
47894;SDS011;33653;52.302;8.134;2023-05-21T13:45:21;12.38;;;6.55;;
47894;SDS011;33653;52.302;8.134;2023-05-21T13:47:54;12.40;;;6.50;;
47894;SDS011;33653;52.302;8.134;2023-05-21T13:50:24;9.32;;;6.90;;
47894;SDS011;33653;52.302;8.134;2023-05-21T13:52:53;13.23;;;7.38;;
47894;SDS011;33653;52.302;8.134;2023-05-21T13:55:22;13.30;;;7.70;;
47894;SDS011;33653;52.302;8.134;2023-05-21T13:57:50;11.27;;;6.43;;
47894;SDS011;33653;52.302;8.134;2023-05-21T14:00:18;11.02;;;7.00;;
47894;SDS011;33653;52.302;8.134;2023-05-21T14:02:47;16.13;;;7.38;;
47894;SDS011;33653;52.302;8.134;2023-05-21T14:05:17;15.13;;;7.60;;
47894;SDS011;33653;52.302;8.134;2023-05-21T14:07:46;14.65;;;7.47;;
47894;SDS011;33653;52.302;8.134;2023-05-21T14:10:15;15.80;;;7.65;;
47894;SDS011;33653;52.302;8.134;2023-05-21T14:12:43;15.90;;;7.78;;
47894;SDS011;33653;52.302;8.134;2023-05-21T14:15:12;16.35;;;7.68;;
47894;SDS011;33653;52.302;8.134;2023-05-21T14:17:41;13.50;;;8.15;;
47894;SDS011;33653;52.302;8.134;2023-05-21T14:20:09;10.43;;;7.47;;
47894;SDS011;33653;52.302;8.134;2023-05-21T14:22:38;10.85;;;7.43;;
47894;SDS011;33653;52.302;8.134;2023-05-21T14:25:09;9.60;;;7.30;;
47894;SDS011;33653;52.302;8.134;2023-05-21T14:27:38;12.05;;;7.63;;
47894;SDS011;33653;52.302;8.134;2023-05-21T14:30:06;12.05;;;6.60;;
47894;SDS011;33653;52.302;8.134;2023-05-21T14:32:35;9.90;;;7.43;;
47894;SDS011;33653;52.302;8.134;2023-05-21T14:35:04;9.50;;;7.18;;
47894;SDS011;33653;52.302;8.134;2023-05-21T14:37:32;10.23;;;7.18;;
47894;SDS011;33653;52.302;8.134;2023-05-21T14:40:01;8.68;;;7.05;;
47894;SDS011;33653;52.302;8.134;2023-05-21T14:42:31;10.77;;;7.75;;
47894;SDS011;33653;52.302;8.134;2023-05-21T14:45:01;13.50;;;8.13;;
47894;SDS011;33653;52.302;8.134;2023-05-21T14:47:45;15.32;;;7.93;;
47894;SDS011;33653;52.302;8.134;2023-05-21T14:50:15;14.32;;;7.82;;
47894;SDS011;33653;52.302;8.134;2023-05-21T14:52:58;8.93;;;7.07;;
47894;SDS011;33653;52.302;8.134;2023-05-21T14:55:44;12.85;;;7.78;;
47894;SDS011;33653;52.302;8.134;2023-05-21T14:58:13;9.70;;;6.97;;
47894;SDS011;33653;52.302;8.134;2023-05-21T15:00:41;10.48;;;7.38;;
47894;SDS011;33653;52.302;8.134;2023-05-21T15:03:23;13.73;;;6.88;;
47894;SDS011;33653;52.302;8.134;2023-05-21T15:05:52;9.20;;;6.40;;
47894;SDS011;33653;52.302;8.134;2023-05-21T15:08:20;8.85;;;6.32;;
47894;SDS011;33653;52.302;8.134;2023-05-21T15:10:49;11.02;;;6.47;;
47894;SDS011;33653;52.302;8.134;2023-05-21T15:13:17;10.13;;;6.68;;
47894;SDS011;33653;52.302;8.134;2023-05-21T15:15:48;9.63;;;7.45;;
47894;SDS011;33653;52.302;8.134;2023-05-21T15:18:16;11.18;;;7.18;;
47894;SDS011;33653;52.302;8.134;2023-05-21T15:20:45;9.15;;;6.80;;
47894;SDS011;33653;52.302;8.134;2023-05-21T15:23:14;9.27;;;6.90;;
47894;SDS011;33653;52.302;8.134;2023-05-21T15:25:44;10.25;;;7.07;;
47894;SDS011;33653;52.302;8.134;2023-05-21T15:28:12;9.75;;;7.03;;
47894;SDS011;33653;52.302;8.134;2023-05-21T15:30:41;9.40;;;7.03;;
47894;SDS011;33653;52.302;8.134;2023-05-21T15:33:09;10.73;;;7.03;;
47894;SDS011;33653;52.302;8.134;2023-05-21T15:35:38;15.25;;;8.38;;
47894;SDS011;33653;52.302;8.134;2023-05-21T15:38:08;12.15;;;7.80;;
47894;SDS011;33653;52.302;8.134;2023-05-21T15:40:40;11.25;;;7.22;;
47894;SDS011;33653;52.302;8.134;2023-05-21T15:43:09;9.20;;;6.60;;
47894;SDS011;33653;52.302;8.134;2023-05-21T15:45:41;10.00;;;6.68;;